sensor_id;sensor_type;location;lat;lon;timestamp;P1;durP1;ratioP1;P2;durP2;ratioP2
2035;SDS011;23642;42.658;23.350;2023-02-11T00:01:13;116.32;;;107.78;;
2035;SDS011;23642;42.658;23.350;2023-02-11T00:03:44;114.88;;;106.88;;
2035;SDS011;23642;42.658;23.350;2023-02-11T00:06:12;115.57;;;107.47;;
2035;SDS011;23642;42.658;23.350;2023-02-11T00:08:40;113.70;;;105.45;;
2035;SDS011;23642;42.658;23.350;2023-02-11T00:11:08;114.95;;;106.95;;
2035;SDS011;23642;42.658;23.350;2023-02-11T00:17:00;115.93;;;107.80;;
2035;SDS011;23642;42.658;23.350;2023-02-11T00:19:27;115.07;;;107.03;;
2035;SDS011;23642;42.658;23.350;2023-02-11T00:21:56;114.90;;;107.03;;
2035;SDS011;23642;42.658;23.350;2023-02-11T00:24:23;112.85;;;105.20;;
2035;SDS011;23642;42.658;23.350;2023-02-11T00:26:50;117.55;;;109.20;;
2035;SDS011;23642;42.658;23.350;2023-02-11T00:29:18;113.13;;;105.22;;
2035;SDS011;23642;42.658;23.350;2023-02-11T00:31:48;111.80;;;103.80;;
2035;SDS011;23642;42.658;23.350;2023-02-11T00:34:15;116.05;;;107.13;;
2035;SDS011;23642;42.658;23.350;2023-02-11T00:36:42;113.20;;;105.35;;
2035;SDS011;23642;42.658;23.350;2023-02-11T00:39:10;116.53;;;108.13;;
2035;SDS011;23642;42.658;23.350;2023-02-11T00:41:37;113.68;;;105.60;;
2035;SDS011;23642;42.658;23.350;2023-02-11T00:44:07;112.07;;;103.97;;
2035;SDS011;23642;42.658;23.350;2023-02-11T00:46:34;116.38;;;108.07;;
2035;SDS011;23642;42.658;23.350;2023-02-11T00:49:03;114.05;;;105.85;;
2035;SDS011;23642;42.658;23.350;2023-02-11T00:51:30;113.63;;;105.60;;
2035;SDS011;23642;42.658;23.350;2023-02-11T00:54:00;114.28;;;105.97;;
2035;SDS011;23642;42.658;23.350;2023-02-11T00:56:35;112.93;;;104.80;;
2035;SDS011;23642;42.658;23.350;2023-02-11T00:59:02;111.65;;;103.25;;
2035;SDS011;23642;42.658;23.350;2023-02-11T01:01:30;115.38;;;107.28;;
2035;SDS011;23642;42.658;23.350;2023-02-11T01:03:58;116.22;;;108.03;;
2035;SDS011;23642;42.658;23.350;2023-02-11T01:06:27;115.88;;;107.85;;
2035;SDS011;23642;42.658;23.350;2023-02-11T01:08:54;115.90;;;107.50;;
2035;SDS011;23642;42.658;23.350;2023-02-11T01:11:21;114.68;;;106.22;;
2035;SDS011;23642;42.658;23.350;2023-02-11T01:13:51;116.03;;;107.53;;
2035;SDS011;23642;42.658;23.350;2023-02-11T01:16:18;114.63;;;106.43;;
2035;SDS011;23642;42.658;23.350;2023-02-11T01:18:46;110.80;;;102.80;;
2035;SDS011;23642;42.658;23.350;2023-02-11T01:21:14;116.00;;;107.70;;
2035;SDS011;23642;42.658;23.350;2023-02-11T01:23:44;114.88;;;106.85;;
2035;SDS011;23642;42.658;23.350;2023-02-11T01:26:10;112.55;;;105.05;;
2035;SDS011;23642;42.658;23.350;2023-02-11T01:28:38;113.82;;;105.80;;
2035;SDS011;23642;42.658;23.350;2023-02-11T01:31:12;116.47;;;108.45;;
2035;SDS011;23642;42.658;23.350;2023-02-11T01:33:42;112.65;;;104.95;;
2035;SDS011;23642;42.658;23.350;2023-02-11T01:36:09;113.35;;;105.55;;
2035;SDS011;23642;42.658;23.350;2023-02-11T01:38:45;115.53;;;107.40;;
2035;SDS011;23642;42.658;23.350;2023-02-11T01:41:14;112.47;;;104.88;;
2035;SDS011;23642;42.658;23.350;2023-02-11T01:43:41;113.60;;;105.25;;
2035;SDS011;23642;42.658;23.350;2023-02-11T01:46:31;113.40;;;105.40;;
2035;SDS011;23642;42.658;23.350;2023-02-11T01:49:01;114.40;;;106.65;;
2035;SDS011;23642;42.658;23.350;2023-02-11T01:51:32;111.45;;;103.97;;
2035;SDS011;23642;42.658;23.350;2023-02-11T01:54:03;115.93;;;108.00;;
2035;SDS011;23642;42.658;23.350;2023-02-11T01:56:54;119.32;;;108.55;;
2035;SDS011;23642;42.658;23.350;2023-02-11T01:59:47;113.15;;;104.97;;
2035;SDS011;23642;42.658;23.350;2023-02-11T02:02:32;110.57;;;102.80;;
2035;SDS011;23642;42.658;23.350;2023-02-11T02:05:07;113.55;;;105.55;;
2035;SDS011;23642;42.658;23.350;2023-02-11T02:07:49;111.95;;;104.03;;
2035;SDS011;23642;42.658;23.350;2023-02-11T02:10:23;114.22;;;106.05;;
2035;SDS011;23642;42.658;23.350;2023-02-11T02:13:01;112.90;;;105.13;;
2035;SDS011;23642;42.658;23.350;2023-02-11T02:15:36;115.88;;;107.25;;
2035;SDS011;23642;42.658;23.350;2023-02-11T02:18:16;111.82;;;103.93;;
2035;SDS011;23642;42.658;23.350;2023-02-11T02:21:21;113.05;;;105.15;;
2035;SDS011;23642;42.658;23.350;2023-02-11T02:27:25;112.72;;;104.82;;
2035;SDS011;23642;42.658;23.350;2023-02-11T02:30:16;113.53;;;105.38;;
2035;SDS011;23642;42.658;23.350;2023-02-11T02:33:12;113.10;;;104.85;;
2035;SDS011;23642;42.658;23.350;2023-02-11T02:35:47;113.15;;;105.30;;
2035;SDS011;23642;42.658;23.350;2023-02-11T02:38:24;112.90;;;104.90;;
2035;SDS011;23642;42.658;23.350;2023-02-11T02:41:01;114.13;;;106.00;;
2035;SDS011;23642;42.658;23.350;2023-02-11T02:43:36;112.40;;;104.00;;
2035;SDS011;23642;42.658;23.350;2023-02-11T02:46:09;114.05;;;105.57;;
2035;SDS011;23642;42.658;23.350;2023-02-11T02:48:39;113.28;;;105.57;;
2035;SDS011;23642;42.658;23.350;2023-02-11T02:51:09;111.75;;;103.78;;
2035;SDS011;23642;42.658;23.350;2023-02-11T02:53:50;113.88;;;105.88;;
2035;SDS011;23642;42.658;23.350;2023-02-11T02:56:27;114.68;;;106.40;;
2035;SDS011;23642;42.658;23.350;2023-02-11T02:59:07;117.18;;;108.68;;
2035;SDS011;23642;42.658;23.350;2023-02-11T03:01:46;116.45;;;108.60;;
2035;SDS011;23642;42.658;23.350;2023-02-11T03:04:24;114.95;;;107.10;;
2035;SDS011;23642;42.658;23.350;2023-02-11T03:07:01;115.65;;;107.43;;
2035;SDS011;23642;42.658;23.350;2023-02-11T03:09:44;113.28;;;105.47;;
2035;SDS011;23642;42.658;23.350;2023-02-11T03:12:17;112.43;;;104.43;;
2035;SDS011;23642;42.658;23.350;2023-02-11T03:14:47;115.20;;;107.20;;
2035;SDS011;23642;42.658;23.350;2023-02-11T03:17:22;113.65;;;105.43;;
2035;SDS011;23642;42.658;23.350;2023-02-11T03:20:14;112.03;;;103.90;;
2035;SDS011;23642;42.658;23.350;2023-02-11T03:22:45;115.07;;;106.97;;
2035;SDS011;23642;42.658;23.350;2023-02-11T03:25:16;112.30;;;104.55;;
2035;SDS011;23642;42.658;23.350;2023-02-11T03:27:46;114.57;;;106.43;;
2035;SDS011;23642;42.658;23.350;2023-02-11T03:30:19;115.95;;;107.63;;
2035;SDS011;23642;42.658;23.350;2023-02-11T03:32:56;118.78;;;110.35;;
2035;SDS011;23642;42.658;23.350;2023-02-11T03:35:34;114.28;;;106.50;;
2035;SDS011;23642;42.658;23.350;2023-02-11T03:38:08;117.40;;;109.38;;
2035;SDS011;23642;42.658;23.350;2023-02-11T03:40:41;117.57;;;109.05;;
2035;SDS011;23642;42.658;23.350;2023-02-11T03:43:17;119.05;;;110.35;;
2035;SDS011;23642;42.658;23.350;2023-02-11T03:45:48;116.60;;;108.07;;
2035;SDS011;23642;42.658;23.350;2023-02-11T03:48:24;118.32;;;110.03;;
2035;SDS011;23642;42.658;23.350;2023-02-11T03:50:57;115.28;;;107.38;;
2035;SDS011;23642;42.658;23.350;2023-02-11T03:53:30;117.13;;;108.97;;
2035;SDS011;23642;42.658;23.350;2023-02-11T03:55:59;117.45;;;108.47;;
2035;SDS011;23642;42.658;23.350;2023-02-11T03:58:30;115.90;;;106.82;;
2035;SDS011;23642;42.658;23.350;2023-02-11T04:00:58;116.60;;;108.30;;
2035;SDS011;23642;42.658;23.350;2023-02-11T04:03:41;114.85;;;106.68;;
2035;SDS011;23642;42.658;23.350;2023-02-11T04:06:09;115.90;;;107.45;;
2035;SDS011;23642;42.658;23.350;2023-02-11T04:08:36;115.78;;;107.25;;
2035;SDS011;23642;42.658;23.350;2023-02-11T04:11:04;117.28;;;108.90;;
2035;SDS011;23642;42.658;23.350;2023-02-11T04:13:32;116.75;;;108.70;;
2035;SDS011;23642;42.658;23.350;2023-02-11T04:16:12;115.78;;;107.28;;
2035;SDS011;23642;42.658;23.350;2023-02-11T04:18:41;116.35;;;108.03;;
2035;SDS011;23642;42.658;23.350;2023-02-11T04:21:16;116.50;;;108.10;;
2035;SDS011;23642;42.658;23.350;2023-02-11T04:26:41;115.80;;;107.30;;
2035;SDS011;23642;42.658;23.350;2023-02-11T04:29:16;114.90;;;106.85;;
2035;SDS011;23642;42.658;23.350;2023-02-11T04:31:46;118.57;;;110.10;;
2035;SDS011;23642;42.658;23.350;2023-02-11T04:34:15;120.30;;;111.55;;
2035;SDS011;23642;42.658;23.350;2023-02-11T04:36:52;123.88;;;113.72;;
2035;SDS011;23642;42.658;23.350;2023-02-11T04:39:22;120.70;;;111.72;;
2035;SDS011;23642;42.658;23.350;2023-02-11T04:41:53;116.90;;;108.43;;
2035;SDS011;23642;42.658;23.350;2023-02-11T04:44:27;117.20;;;108.60;;
2035;SDS011;23642;42.658;23.350;2023-02-11T04:46:56;120.32;;;111.50;;
2035;SDS011;23642;42.658;23.350;2023-02-11T04:49:29;118.35;;;109.95;;
2035;SDS011;23642;42.658;23.350;2023-02-11T04:55:23;117.20;;;108.68;;
2035;SDS011;23642;42.658;23.350;2023-02-11T04:57:55;120.90;;;111.68;;
2035;SDS011;23642;42.658;23.350;2023-02-11T05:00:41;122.03;;;112.90;;
2035;SDS011;23642;42.658;23.350;2023-02-11T05:03:27;123.50;;;114.07;;
2035;SDS011;23642;42.658;23.350;2023-02-11T05:05:58;120.47;;;111.32;;
2035;SDS011;23642;42.658;23.350;2023-02-11T05:08:39;122.32;;;112.72;;
2035;SDS011;23642;42.658;23.350;2023-02-11T05:11:23;122.45;;;112.20;;
2035;SDS011;23642;42.658;23.350;2023-02-11T05:14:10;123.80;;;114.18;;
2035;SDS011;23642;42.658;23.350;2023-02-11T05:16:57;121.40;;;111.65;;
2035;SDS011;23642;42.658;23.350;2023-02-11T05:19:27;119.35;;;110.35;;
2035;SDS011;23642;42.658;23.350;2023-02-11T05:21:55;117.43;;;108.57;;
2035;SDS011;23642;42.658;23.350;2023-02-11T05:24:30;119.22;;;109.72;;
2035;SDS011;23642;42.658;23.350;2023-02-11T05:27:15;118.53;;;109.13;;
2035;SDS011;23642;42.658;23.350;2023-02-11T05:30:15;117.05;;;108.25;;
2035;SDS011;23642;42.658;23.350;2023-02-11T05:32:42;118.95;;;109.50;;
2035;SDS011;23642;42.658;23.350;2023-02-11T05:35:13;121.53;;;111.55;;
2035;SDS011;23642;42.658;23.350;2023-02-11T05:38:00;114.28;;;105.53;;
2035;SDS011;23642;42.658;23.350;2023-02-11T05:40:45;118.03;;;108.60;;
2035;SDS011;23642;42.658;23.350;2023-02-11T05:43:41;115.30;;;106.35;;
2035;SDS011;23642;42.658;23.350;2023-02-11T05:46:22;118.97;;;109.80;;
2035;SDS011;23642;42.658;23.350;2023-02-11T05:48:52;115.38;;;106.18;;
2035;SDS011;23642;42.658;23.350;2023-02-11T05:51:40;113.75;;;104.75;;
2035;SDS011;23642;42.658;23.350;2023-02-11T05:54:42;112.80;;;104.60;;
2035;SDS011;23642;42.658;23.350;2023-02-11T05:57:18;116.35;;;106.30;;
2035;SDS011;23642;42.658;23.350;2023-02-11T06:02:46;115.00;;;105.53;;
2035;SDS011;23642;42.658;23.350;2023-02-11T06:05:32;114.90;;;106.00;;
2035;SDS011;23642;42.658;23.350;2023-02-11T06:08:09;113.88;;;104.68;;
2035;SDS011;23642;42.658;23.350;2023-02-11T06:10:38;114.10;;;104.85;;
2035;SDS011;23642;42.658;23.350;2023-02-11T06:13:51;116.80;;;107.70;;
2035;SDS011;23642;42.658;23.350;2023-02-11T06:16:43;115.25;;;105.75;;
2035;SDS011;23642;42.658;23.350;2023-02-11T06:22:35;114.88;;;105.93;;
2035;SDS011;23642;42.658;23.350;2023-02-11T06:25:13;114.43;;;105.85;;
2035;SDS011;23642;42.658;23.350;2023-02-11T06:27:41;117.55;;;108.00;;
2035;SDS011;23642;42.658;23.350;2023-02-11T06:30:46;119.20;;;109.35;;
2035;SDS011;23642;42.658;23.350;2023-02-11T06:33:14;116.20;;;106.90;;
2035;SDS011;23642;42.658;23.350;2023-02-11T06:35:54;119.60;;;110.38;;
2035;SDS011;23642;42.658;23.350;2023-02-11T06:38:21;120.10;;;110.95;;
2035;SDS011;23642;42.658;23.350;2023-02-11T06:40:53;121.72;;;111.68;;
2035;SDS011;23642;42.658;23.350;2023-02-11T06:43:24;119.00;;;109.88;;
2035;SDS011;23642;42.658;23.350;2023-02-11T06:45:58;122.55;;;111.93;;
2035;SDS011;23642;42.658;23.350;2023-02-11T06:48:40;122.47;;;112.25;;
2035;SDS011;23642;42.658;23.350;2023-02-11T06:51:14;121.68;;;111.82;;
2035;SDS011;23642;42.658;23.350;2023-02-11T06:54:10;120.82;;;111.00;;
2035;SDS011;23642;42.658;23.350;2023-02-11T06:57:04;121.65;;;111.85;;
2035;SDS011;23642;42.658;23.350;2023-02-11T06:59:50;117.93;;;108.30;;
2035;SDS011;23642;42.658;23.350;2023-02-11T07:02:24;122.65;;;112.65;;
2035;SDS011;23642;42.658;23.350;2023-02-11T07:05:01;120.65;;;111.00;;
2035;SDS011;23642;42.658;23.350;2023-02-11T07:07:37;121.32;;;111.07;;
2035;SDS011;23642;42.658;23.350;2023-02-11T07:12:48;123.82;;;113.88;;
2035;SDS011;23642;42.658;23.350;2023-02-11T07:15:17;123.00;;;113.32;;
2035;SDS011;23642;42.658;23.350;2023-02-11T07:21:20;122.63;;;112.78;;
2035;SDS011;23642;42.658;23.350;2023-02-11T07:24:09;123.50;;;113.68;;
2035;SDS011;23642;42.658;23.350;2023-02-11T07:26:49;124.85;;;114.88;;
2035;SDS011;23642;42.658;23.350;2023-02-11T07:29:35;125.22;;;115.65;;
2035;SDS011;23642;42.658;23.350;2023-02-11T07:32:28;126.10;;;115.50;;
2035;SDS011;23642;42.658;23.350;2023-02-11T07:37:56;124.13;;;114.28;;
2035;SDS011;23642;42.658;23.350;2023-02-11T07:40:38;120.18;;;110.85;;
2035;SDS011;23642;42.658;23.350;2023-02-11T07:43:07;127.07;;;116.03;;
2035;SDS011;23642;42.658;23.350;2023-02-11T07:46:13;122.53;;;112.80;;
2035;SDS011;23642;42.658;23.350;2023-02-11T07:48:48;122.00;;;112.68;;
2035;SDS011;23642;42.658;23.350;2023-02-11T07:51:46;121.90;;;112.57;;
2035;SDS011;23642;42.658;23.350;2023-02-11T07:54:31;121.00;;;111.38;;
2035;SDS011;23642;42.658;23.350;2023-02-11T07:57:02;121.47;;;112.00;;
2035;SDS011;23642;42.658;23.350;2023-02-11T08:00:17;123.38;;;113.63;;
2035;SDS011;23642;42.658;23.350;2023-02-11T08:06:22;122.50;;;113.35;;
2035;SDS011;23642;42.658;23.350;2023-02-11T08:12:17;123.15;;;113.85;;
2035;SDS011;23642;42.658;23.350;2023-02-11T08:15:01;125.47;;;114.75;;
2035;SDS011;23642;42.658;23.350;2023-02-11T08:17:42;123.32;;;113.82;;
2035;SDS011;23642;42.658;23.350;2023-02-11T08:20:16;123.75;;;114.07;;
2035;SDS011;23642;42.658;23.350;2023-02-11T08:22:57;123.32;;;113.93;;
2035;SDS011;23642;42.658;23.350;2023-02-11T08:25:31;125.43;;;115.63;;
2035;SDS011;23642;42.658;23.350;2023-02-11T08:28:34;123.47;;;113.72;;
2035;SDS011;23642;42.658;23.350;2023-02-11T08:31:09;120.07;;;111.03;;
2035;SDS011;23642;42.658;23.350;2023-02-11T08:33:41;121.13;;;112.20;;
2035;SDS011;23642;42.658;23.350;2023-02-11T08:36:14;121.97;;;112.43;;
2035;SDS011;23642;42.658;23.350;2023-02-11T08:38:52;126.07;;;115.25;;
2035;SDS011;23642;42.658;23.350;2023-02-11T08:41:29;119.45;;;110.50;;
2035;SDS011;23642;42.658;23.350;2023-02-11T08:44:08;127.28;;;116.63;;
2035;SDS011;23642;42.658;23.350;2023-02-11T08:46:43;123.10;;;113.57;;
2035;SDS011;23642;42.658;23.350;2023-02-11T08:49:14;121.93;;;112.68;;
2035;SDS011;23642;42.658;23.350;2023-02-11T08:51:58;124.75;;;115.15;;
2035;SDS011;23642;42.658;23.350;2023-02-11T08:54:31;122.97;;;113.07;;
2035;SDS011;23642;42.658;23.350;2023-02-11T09:00:45;124.13;;;114.63;;
2035;SDS011;23642;42.658;23.350;2023-02-11T09:03:27;123.82;;;114.43;;
2035;SDS011;23642;42.658;23.350;2023-02-11T09:05:58;123.82;;;114.25;;
2035;SDS011;23642;42.658;23.350;2023-02-11T09:08:34;123.10;;;113.47;;
2035;SDS011;23642;42.658;23.350;2023-02-11T09:11:12;124.18;;;114.18;;
2035;SDS011;23642;42.658;23.350;2023-02-11T09:13:40;121.55;;;112.13;;
2035;SDS011;23642;42.658;23.350;2023-02-11T09:16:14;120.55;;;111.32;;
2035;SDS011;23642;42.658;23.350;2023-02-11T09:18:58;122.47;;;112.97;;
2035;SDS011;23642;42.658;23.350;2023-02-11T09:21:34;120.55;;;111.15;;
2035;SDS011;23642;42.658;23.350;2023-02-11T09:24:11;124.57;;;115.05;;
2035;SDS011;23642;42.658;23.350;2023-02-11T09:29:46;126.60;;;115.95;;
2035;SDS011;23642;42.658;23.350;2023-02-11T09:35:27;125.00;;;115.70;;
2035;SDS011;23642;42.658;23.350;2023-02-11T09:38:11;120.97;;;111.95;;
2035;SDS011;23642;42.658;23.350;2023-02-11T09:40:52;122.13;;;112.72;;
2035;SDS011;23642;42.658;23.350;2023-02-11T09:46:40;118.35;;;109.25;;
2035;SDS011;23642;42.658;23.350;2023-02-11T09:49:33;123.57;;;113.22;;
2035;SDS011;23642;42.658;23.350;2023-02-11T09:52:36;121.00;;;111.68;;
2035;SDS011;23642;42.658;23.350;2023-02-11T09:55:17;122.03;;;111.90;;
2035;SDS011;23642;42.658;23.350;2023-02-11T09:58:02;120.28;;;110.82;;
2035;SDS011;23642;42.658;23.350;2023-02-11T10:04:01;115.97;;;107.60;;
2035;SDS011;23642;42.658;23.350;2023-02-11T10:06:56;118.82;;;110.07;;
2035;SDS011;23642;42.658;23.350;2023-02-11T10:09:50;119.70;;;110.35;;
2035;SDS011;23642;42.658;23.350;2023-02-11T10:12:52;120.05;;;111.22;;
2035;SDS011;23642;42.658;23.350;2023-02-11T10:15:41;115.32;;;106.80;;
2035;SDS011;23642;42.658;23.350;2023-02-11T10:18:32;118.65;;;109.47;;
2035;SDS011;23642;42.658;23.350;2023-02-11T10:21:22;120.05;;;111.10;;
2035;SDS011;23642;42.658;23.350;2023-02-11T10:24:09;121.07;;;111.55;;
2035;SDS011;23642;42.658;23.350;2023-02-11T10:26:41;115.50;;;107.00;;
2035;SDS011;23642;42.658;23.350;2023-02-11T10:29:13;118.43;;;109.63;;
2035;SDS011;23642;42.658;23.350;2023-02-11T10:31:52;115.15;;;106.30;;
2035;SDS011;23642;42.658;23.350;2023-02-11T10:34:23;116.63;;;108.05;;
2035;SDS011;23642;42.658;23.350;2023-02-11T10:36:52;115.97;;;107.47;;
2035;SDS011;23642;42.658;23.350;2023-02-11T10:39:22;117.60;;;108.88;;
2035;SDS011;23642;42.658;23.350;2023-02-11T10:41:52;115.07;;;106.88;;
2035;SDS011;23642;42.658;23.350;2023-02-11T10:44:37;119.13;;;110.43;;
2035;SDS011;23642;42.658;23.350;2023-02-11T10:47:17;114.85;;;106.45;;
2035;SDS011;23642;42.658;23.350;2023-02-11T10:49:50;115.47;;;107.28;;
2035;SDS011;23642;42.658;23.350;2023-02-11T10:52:20;114.55;;;106.10;;
2035;SDS011;23642;42.658;23.350;2023-02-11T10:54:59;114.22;;;105.45;;
2035;SDS011;23642;42.658;23.350;2023-02-11T10:57:35;115.90;;;107.13;;
2035;SDS011;23642;42.658;23.350;2023-02-11T11:03:16;114.53;;;106.38;;
2035;SDS011;23642;42.658;23.350;2023-02-11T11:05:58;117.80;;;108.97;;
2035;SDS011;23642;42.658;23.350;2023-02-11T11:08:42;115.57;;;107.32;;
2035;SDS011;23642;42.658;23.350;2023-02-11T11:11:17;116.47;;;107.43;;
2035;SDS011;23642;42.658;23.350;2023-02-11T11:13:53;116.77;;;107.90;;
2035;SDS011;23642;42.658;23.350;2023-02-11T11:16:25;115.57;;;107.43;;
2035;SDS011;23642;42.658;23.350;2023-02-11T11:19:19;115.20;;;106.38;;
2035;SDS011;23642;42.658;23.350;2023-02-11T11:21:49;117.47;;;108.63;;
2035;SDS011;23642;42.658;23.350;2023-02-11T11:24:25;117.55;;;108.57;;
2035;SDS011;23642;42.658;23.350;2023-02-11T11:27:02;114.88;;;106.55;;
2035;SDS011;23642;42.658;23.350;2023-02-11T11:29:34;115.53;;;107.10;;
2035;SDS011;23642;42.658;23.350;2023-02-11T11:32:10;117.43;;;108.57;;
2035;SDS011;23642;42.658;23.350;2023-02-11T11:37:51;115.60;;;107.43;;
2035;SDS011;23642;42.658;23.350;2023-02-11T11:40:37;114.72;;;106.20;;
2035;SDS011;23642;42.658;23.350;2023-02-11T11:43:17;115.53;;;107.28;;
2035;SDS011;23642;42.658;23.350;2023-02-11T11:47:24;111.00;;;103.40;;
2035;SDS011;23642;42.658;23.350;2023-02-11T11:49:11;116.43;;;107.33;;
2035;SDS011;23642;42.658;23.350;2023-02-11T11:58:37;109.25;;;101.63;;
2035;SDS011;23642;42.658;23.350;2023-02-11T12:01:26;111.97;;;104.28;;
2035;SDS011;23642;42.658;23.350;2023-02-11T12:07:48;113.70;;;105.87;;
2035;SDS011;23642;42.658;23.350;2023-02-11T12:11:07;112.47;;;104.37;;
2035;SDS011;23642;42.658;23.350;2023-02-11T12:20:56;110.20;;;102.30;;
2035;SDS011;23642;42.658;23.350;2023-02-11T12:27:22;111.70;;;103.80;;
2035;SDS011;23642;42.658;23.350;2023-02-11T12:30:52;109.20;;;102.00;;
2035;SDS011;23642;42.658;23.350;2023-02-11T12:34:08;111.30;;;103.73;;
2035;SDS011;23642;42.658;23.350;2023-02-11T12:40:52;112.30;;;104.30;;
2035;SDS011;23642;42.658;23.350;2023-02-11T12:43:55;109.10;;;101.80;;
2035;SDS011;23642;42.658;23.350;2023-02-11T12:46:55;111.67;;;103.57;;
2035;SDS011;23642;42.658;23.350;2023-02-11T12:50:16;115.63;;;106.70;;
2035;SDS011;23642;42.658;23.350;2023-02-11T12:53:37;114.50;;;106.60;;
2035;SDS011;23642;42.658;23.350;2023-02-11T13:00:12;108.10;;;100.80;;
2035;SDS011;23642;42.658;23.350;2023-02-11T13:02:59;110.50;;;102.23;;
2035;SDS011;23642;42.658;23.350;2023-02-11T13:05:53;114.17;;;105.47;;
2035;SDS011;23642;42.658;23.350;2023-02-11T13:08:26;113.27;;;105.30;;
2035;SDS011;23642;42.658;23.350;2023-02-11T13:11:16;109.27;;;101.53;;
2035;SDS011;23642;42.658;23.350;2023-02-11T13:17:39;110.73;;;103.43;;
2035;SDS011;23642;42.658;23.350;2023-02-11T13:20:31;110.33;;;102.60;;
2035;SDS011;23642;42.658;23.350;2023-02-11T13:23:18;108.70;;;101.30;;
2035;SDS011;23642;42.658;23.350;2023-02-11T13:26:23;108.13;;;100.67;;
2035;SDS011;23642;42.658;23.350;2023-02-11T13:29:24;110.03;;;102.53;;
2035;SDS011;23642;42.658;23.350;2023-02-11T13:42:16;108.50;;;101.30;;
2035;SDS011;23642;42.658;23.350;2023-02-11T13:44:58;108.40;;;101.10;;
2035;SDS011;23642;42.658;23.350;2023-02-11T13:48:02;108.47;;;100.67;;
2035;SDS011;23642;42.658;23.350;2023-02-11T13:51:01;108.57;;;100.70;;
2035;SDS011;23642;42.658;23.350;2023-02-11T13:53:46;108.80;;;101.20;;
2035;SDS011;23642;42.658;23.350;2023-02-11T13:56:44;106.27;;;98.53;;
2035;SDS011;23642;42.658;23.350;2023-02-11T13:59:52;110.23;;;102.47;;
2035;SDS011;23642;42.658;23.350;2023-02-11T14:03:15;110.03;;;102.73;;
2035;SDS011;23642;42.658;23.350;2023-02-11T14:06:19;108.67;;;101.13;;
2035;SDS011;23642;42.658;23.350;2023-02-11T14:09:32;109.90;;;102.20;;
2035;SDS011;23642;42.658;23.350;2023-02-11T14:12:55;108.40;;;100.90;;
2035;SDS011;23642;42.658;23.350;2023-02-11T14:16:38;110.13;;;102.50;;
2035;SDS011;23642;42.658;23.350;2023-02-11T14:19:46;112.60;;;104.37;;
2035;SDS011;23642;42.658;23.350;2023-02-11T14:22:31;107.73;;;100.33;;
2035;SDS011;23642;42.658;23.350;2023-02-11T14:25:44;108.33;;;100.33;;
2035;SDS011;23642;42.658;23.350;2023-02-11T14:32:12;106.83;;;99.67;;
2035;SDS011;23642;42.658;23.350;2023-02-11T14:35:20;105.07;;;98.07;;
2035;SDS011;23642;42.658;23.350;2023-02-11T14:38:16;108.13;;;100.90;;
2035;SDS011;23642;42.658;23.350;2023-02-11T14:41:09;104.50;;;97.40;;
2035;SDS011;23642;42.658;23.350;2023-02-11T14:43:51;109.17;;;101.50;;
2035;SDS011;23642;42.658;23.350;2023-02-11T14:47:18;110.27;;;102.33;;
2035;SDS011;23642;42.658;23.350;2023-02-11T14:50:15;107.37;;;100.03;;
2035;SDS011;23642;42.658;23.350;2023-02-11T14:53:17;106.33;;;98.93;;
2035;SDS011;23642;42.658;23.350;2023-02-11T14:56:00;107.87;;;100.13;;
2035;SDS011;23642;42.658;23.350;2023-02-11T14:59:18;107.47;;;100.17;;
2035;SDS011;23642;42.658;23.350;2023-02-11T15:02:14;106.17;;;99.00;;
2035;SDS011;23642;42.658;23.350;2023-02-11T15:05:27;108.03;;;100.60;;
2035;SDS011;23642;42.658;23.350;2023-02-11T15:08:00;107.00;;;99.50;;
2035;SDS011;23642;42.658;23.350;2023-02-11T15:10:54;107.37;;;100.03;;
2035;SDS011;23642;42.658;23.350;2023-02-11T15:13:55;106.93;;;99.43;;
2035;SDS011;23642;42.658;23.350;2023-02-11T15:17:11;108.57;;;101.23;;
2035;SDS011;23642;42.658;23.350;2023-02-11T15:20:11;107.77;;;100.17;;
2035;SDS011;23642;42.658;23.350;2023-02-11T15:29:33;112.90;;;104.93;;
2035;SDS011;23642;42.658;23.350;2023-02-11T15:32:28;111.70;;;103.70;;
2035;SDS011;23642;42.658;23.350;2023-02-11T15:35:15;112.47;;;103.57;;
2035;SDS011;23642;42.658;23.350;2023-02-11T15:38:04;112.13;;;103.80;;
2035;SDS011;23642;42.658;23.350;2023-02-11T15:41:01;108.53;;;100.77;;
2035;SDS011;23642;42.658;23.350;2023-02-11T15:44:05;113.88;;;105.50;;
2035;SDS011;23642;42.658;23.350;2023-02-11T15:47:08;110.00;;;102.23;;
2035;SDS011;23642;42.658;23.350;2023-02-11T15:49:55;113.40;;;105.20;;
2035;SDS011;23642;42.658;23.350;2023-02-11T15:52:43;112.72;;;104.40;;
2035;SDS011;23642;42.658;23.350;2023-02-11T15:55:32;113.25;;;104.72;;
2035;SDS011;23642;42.658;23.350;2023-02-11T15:58:23;113.00;;;104.90;;
2035;SDS011;23642;42.658;23.350;2023-02-11T16:01:34;114.25;;;105.88;;
2035;SDS011;23642;42.658;23.350;2023-02-11T16:04:35;113.40;;;105.35;;
2035;SDS011;23642;42.658;23.350;2023-02-11T16:07:48;115.75;;;107.22;;
2035;SDS011;23642;42.658;23.350;2023-02-11T16:10:32;113.88;;;105.55;;
2035;SDS011;23642;42.658;23.350;2023-02-11T16:13:32;112.95;;;104.93;;
2035;SDS011;23642;42.658;23.350;2023-02-11T16:19:55;114.97;;;106.70;;
2035;SDS011;23642;42.658;23.350;2023-02-11T16:23:01;114.70;;;106.50;;
2035;SDS011;23642;42.658;23.350;2023-02-11T16:25:40;114.70;;;106.68;;
2035;SDS011;23642;42.658;23.350;2023-02-11T16:29:05;113.43;;;105.32;;
2035;SDS011;23642;42.658;23.350;2023-02-11T16:31:46;115.82;;;107.53;;
2035;SDS011;23642;42.658;23.350;2023-02-11T16:35:06;116.15;;;106.97;;
2035;SDS011;23642;42.658;23.350;2023-02-11T16:38:02;114.80;;;106.70;;
2035;SDS011;23642;42.658;23.350;2023-02-11T16:41:03;114.15;;;105.50;;
2035;SDS011;23642;42.658;23.350;2023-02-11T16:44:03;114.35;;;106.05;;
2035;SDS011;23642;42.658;23.350;2023-02-11T16:46:51;113.60;;;104.78;;
2035;SDS011;23642;42.658;23.350;2023-02-11T16:49:41;113.40;;;105.40;;
2035;SDS011;23642;42.658;23.350;2023-02-11T16:55:47;116.10;;;108.07;;
2035;SDS011;23642;42.658;23.350;2023-02-11T16:58:36;117.25;;;108.63;;
2035;SDS011;23642;42.658;23.350;2023-02-11T17:01:22;117.57;;;108.88;;
2035;SDS011;23642;42.658;23.350;2023-02-11T17:04:25;116.57;;;108.40;;
2035;SDS011;23642;42.658;23.350;2023-02-11T17:07:01;113.43;;;105.43;;
2035;SDS011;23642;42.658;23.350;2023-02-11T17:10:02;121.30;;;111.75;;
2035;SDS011;23642;42.658;23.350;2023-02-11T17:12:46;118.90;;;110.70;;
2035;SDS011;23642;42.658;23.350;2023-02-11T17:15:34;119.43;;;110.93;;
2035;SDS011;23642;42.658;23.350;2023-02-11T17:18:20;117.90;;;109.57;;
2035;SDS011;23642;42.658;23.350;2023-02-11T17:21:31;119.32;;;110.85;;